createdAt,value
2022-07-29T00:02:46.208Z,957.25
2022-07-29T00:17:48.573Z,957.14
2022-07-29T00:32:50.978Z,957.01
2022-07-29T00:47:53.400Z,956.94
2022-07-29T01:02:55.705Z,956.8
2022-07-29T01:17:58.026Z,956.77
2022-07-29T01:33:00.314Z,956.74
2022-07-29T01:48:02.770Z,956.82
2022-07-29T02:03:05.031Z,956.95
2022-07-29T02:18:07.367Z,957.05
2022-07-29T02:33:09.689Z,957.26
2022-07-29T02:48:11.988Z,957.29
2022-07-29T03:03:14.489Z,957.35
2022-07-29T03:18:16.848Z,957.45
2022-07-29T03:33:19.707Z,957.46
2022-07-29T03:48:22.728Z,957.57
2022-07-29T04:03:25.094Z,957.69
2022-07-29T04:18:27.473Z,957.82
2022-07-29T04:33:29.677Z,957.95
2022-07-29T04:48:32.135Z,958.2
2022-07-29T05:03:34.483Z,958.41
2022-07-29T05:18:36.790Z,958.42
2022-07-29T05:33:39.112Z,958.36
2022-07-29T05:48:41.487Z,958.48
2022-07-29T06:03:43.901Z,958.52
2022-07-29T06:18:46.257Z,958.75
2022-07-29T06:33:48.761Z,958.87
2022-07-29T06:48:51.221Z,959.07
2022-07-29T07:03:53.657Z,959.1
2022-07-29T07:18:55.988Z,959.16
2022-07-29T07:33:58.272Z,959.13
2022-07-29T07:49:00.569Z,959.28
2022-07-29T08:04:02.895Z,959.29
2022-07-29T08:19:05.204Z,959.27
2022-07-29T08:34:07.497Z,959.24
2022-07-29T08:49:09.968Z,959.28
2022-07-29T09:04:12.312Z,959.36
2022-07-29T09:19:14.544Z,959.41
2022-07-29T09:34:16.874Z,959.53
2022-07-29T09:49:19.279Z,959.69
2022-07-29T10:04:21.639Z,959.67
2022-07-29T10:19:23.926Z,959.83
2022-07-29T10:34:26.193Z,959.91
2022-07-29T10:49:30.612Z,959.98
2022-07-29T11:04:33.249Z,959.98
2022-07-29T11:19:35.830Z,960.04
2022-07-29T11:34:38.296Z,960.26
2022-07-29T11:49:44.517Z,960.39
2022-07-29T12:04:47.074Z,960.5
2022-07-29T12:19:49.375Z,960.59
2022-07-29T12:34:53.309Z,960.57
2022-07-29T12:49:55.714Z,960.63
2022-07-29T13:04:58.088Z,960.72
2022-07-29T13:20:00.470Z,960.7
2022-07-29T13:35:06.338Z,960.73
2022-07-29T13:50:08.573Z,960.75
2022-07-29T14:05:10.939Z,960.85
2022-07-29T14:20:13.392Z,960.83
2022-07-29T14:35:15.689Z,960.8
2022-07-29T14:50:17.956Z,960.78
2022-07-29T15:05:34.387Z,960.72
2022-07-29T15:20:36.730Z,960.63
2022-07-29T15:35:39.913Z,960.6
2022-07-29T15:50:43.156Z,960.59
2022-07-29T16:05:49.645Z,960.47
2022-07-29T16:20:51.963Z,960.3
2022-07-29T16:35:54.235Z,960.17
2022-07-29T16:50:56.496Z,959.98
2022-07-29T17:05:58.781Z,959.9
2022-07-29T17:21:01.200Z,959.68
2022-07-29T17:36:03.464Z,959.6
2022-07-29T17:51:05.786Z,959.46
2022-07-29T18:06:08.010Z,959.29
2022-07-29T18:21:10.318Z,959.05
2022-07-29T18:36:12.596Z,958.84
2022-07-29T18:51:14.960Z,958.67
2022-07-29T19:06:22.648Z,958.55
2022-07-29T19:21:27.875Z,958.31
2022-07-29T19:36:30.152Z,958.12
2022-07-29T19:51:32.443Z,957.83
2022-07-29T20:06:34.736Z,957.63
2022-07-29T20:21:37.275Z,957.39
2022-07-29T20:36:39.592Z,957.33
2022-07-29T20:51:43.427Z,957.19
2022-07-29T21:06:46.358Z,956.92
2022-07-29T21:21:48.596Z,956.79
2022-07-29T21:36:51.021Z,956.73
2022-07-29T21:51:53.357Z,956.67
2022-07-29T22:06:55.696Z,956.5
2022-07-29T22:21:57.952Z,956.33
2022-07-29T22:37:00.419Z,956.26
2022-07-29T22:52:03.080Z,956.08
2022-07-29T23:07:05.440Z,955.97
2022-07-29T23:22:07.706Z,955.8
2022-07-29T23:37:09.983Z,955.74
2022-07-29T23:52:12.261Z,955.84
